sensor_id;sensor_type;location;lat;lon;timestamp;pressure;altitude;pressure_sealevel;temperature;humidity
74329;BME280;62749;51.982;5.916;2023-01-10T00:01:55;100969.81;;;6.36;81.14
74329;BME280;62749;51.982;5.916;2023-01-10T00:04:27;100971.72;;;6.29;81.21
74329;BME280;62749;51.982;5.916;2023-01-10T00:06:56;100975.19;;;6.31;81.62
74329;BME280;62749;51.982;5.916;2023-01-10T00:09:26;100977.84;;;6.28;81.49
74329;BME280;62749;51.982;5.916;2023-01-10T00:11:55;100984.00;;;6.27;81.00
74329;BME280;62749;51.982;5.916;2023-01-10T00:14:37;100989.34;;;6.24;81.04
74329;BME280;62749;51.982;5.916;2023-01-10T00:17:06;100988.59;;;6.17;80.74
74329;BME280;62749;51.982;5.916;2023-01-10T00:19:38;100999.88;;;6.21;80.88
74329;BME280;62749;51.982;5.916;2023-01-10T00:22:07;101005.97;;;6.23;80.90
74329;BME280;62749;51.982;5.916;2023-01-10T00:24:48;101011.19;;;6.24;80.43
74329;BME280;62749;51.982;5.916;2023-01-10T00:27:17;101014.69;;;6.23;80.09
74329;BME280;62749;51.982;5.916;2023-01-10T00:29:49;101015.50;;;6.27;80.19
74329;BME280;62749;51.982;5.916;2023-01-10T00:32:20;101031.19;;;6.30;79.80
74329;BME280;62749;51.982;5.916;2023-01-10T00:34:52;101029.44;;;6.31;79.14
74329;BME280;62749;51.982;5.916;2023-01-10T00:37:22;101032.97;;;6.28;79.62
74329;BME280;62749;51.982;5.916;2023-01-10T00:39:51;101032.06;;;6.29;78.87
74329;BME280;62749;51.982;5.916;2023-01-10T00:42:20;101049.69;;;6.24;79.20
74329;BME280;62749;51.982;5.916;2023-01-10T00:45:03;101050.72;;;6.13;79.34
74329;BME280;62749;51.982;5.916;2023-01-10T00:47:32;101063.09;;;6.08;79.79
74329;BME280;62749;51.982;5.916;2023-01-10T00:50:05;101058.78;;;6.06;79.89
74329;BME280;62749;51.982;5.916;2023-01-10T00:52:34;101053.41;;;6.12;79.79
74329;BME280;62749;51.982;5.916;2023-01-10T00:55:05;101063.00;;;6.13;80.03
74329;BME280;62749;51.982;5.916;2023-01-10T00:57:34;101068.28;;;6.11;79.62
74329;BME280;62749;51.982;5.916;2023-01-10T01:00:06;101080.50;;;6.12;79.88
74329;BME280;62749;51.982;5.916;2023-01-10T01:02:35;101071.84;;;6.07;79.95
74329;BME280;62749;51.982;5.916;2023-01-10T01:05:08;101075.28;;;6.11;80.28
74329;BME280;62749;51.982;5.916;2023-01-10T01:07:37;101084.84;;;6.13;80.08
74329;BME280;62749;51.982;5.916;2023-01-10T01:10:08;101078.78;;;6.11;80.13
74329;BME280;62749;51.982;5.916;2023-01-10T01:12:50;101089.47;;;6.01;80.20
74329;BME280;62749;51.982;5.916;2023-01-10T01:15:20;101084.22;;;6.01;80.14
74329;BME280;62749;51.982;5.916;2023-01-10T01:17:49;101091.22;;;6.00;80.29
74329;BME280;62749;51.982;5.916;2023-01-10T01:20:22;101082.63;;;5.90;80.70
74329;BME280;62749;51.982;5.916;2023-01-10T01:22:51;101096.63;;;5.88;81.36
74329;BME280;62749;51.982;5.916;2023-01-10T01:25:21;101101.09;;;5.82;81.58
74329;BME280;62749;51.982;5.916;2023-01-10T01:27:51;101097.44;;;5.93;81.46
74329;BME280;62749;51.982;5.916;2023-01-10T01:30:20;101100.09;;;5.90;81.43
74329;BME280;62749;51.982;5.916;2023-01-10T01:32:49;101112.13;;;6.03;80.75
74329;BME280;62749;51.982;5.916;2023-01-10T01:35:22;101110.34;;;6.05;80.59
74329;BME280;62749;51.982;5.916;2023-01-10T01:37:51;101114.91;;;5.94;80.55
74329;BME280;62749;51.982;5.916;2023-01-10T01:40:22;101115.69;;;5.99;80.50
74329;BME280;62749;51.982;5.916;2023-01-10T01:42:52;101127.88;;;6.03;80.04
74329;BME280;62749;51.982;5.916;2023-01-10T01:45:39;101124.47;;;5.96;80.44
74329;BME280;62749;51.982;5.916;2023-01-10T01:48:15;101120.97;;;5.96;80.52
74329;BME280;62749;51.982;5.916;2023-01-10T01:50:56;101123.78;;;5.87;80.54
74329;BME280;62749;51.982;5.916;2023-01-10T01:53:36;101129.03;;;5.87;80.90
74329;BME280;62749;51.982;5.916;2023-01-10T01:56:11;101132.44;;;5.89;80.91
74329;BME280;62749;51.982;5.916;2023-01-10T01:58:48;101135.13;;;5.87;81.18
74329;BME280;62749;51.982;5.916;2023-01-10T02:01:20;101136.97;;;5.80;81.32
74329;BME280;62749;51.982;5.916;2023-01-10T02:03:54;101143.06;;;5.81;81.31
74329;BME280;62749;51.982;5.916;2023-01-10T02:06:28;101148.34;;;5.79;81.04
74329;BME280;62749;51.982;5.916;2023-01-10T02:09:03;101138.81;;;5.74;81.19
74329;BME280;62749;51.982;5.916;2023-01-10T02:11:35;101145.78;;;5.76;81.29
74329;BME280;62749;51.982;5.916;2023-01-10T02:14:07;101144.88;;;5.77;81.08
74329;BME280;62749;51.982;5.916;2023-01-10T02:16:38;101150.16;;;5.76;81.48
74329;BME280;62749;51.982;5.916;2023-01-10T02:19:16;101155.47;;;5.71;81.40
74329;BME280;62749;51.982;5.916;2023-01-10T02:22:22;101155.56;;;5.66;81.77
74329;BME280;62749;51.982;5.916;2023-01-10T02:25:17;101158.88;;;5.76;81.72
74329;BME280;62749;51.982;5.916;2023-01-10T02:28:11;101160.56;;;5.80;81.92
74329;BME280;62749;51.982;5.916;2023-01-10T02:31:15;101162.25;;;5.84;81.55
74329;BME280;62749;51.982;5.916;2023-01-10T02:33:58;101175.25;;;5.91;81.65
74329;BME280;62749;51.982;5.916;2023-01-10T02:36:42;101170.81;;;5.96;81.40
74329;BME280;62749;51.982;5.916;2023-01-10T02:39:20;101176.03;;;5.97;81.54
74329;BME280;62749;51.982;5.916;2023-01-10T02:42:00;101171.66;;;5.96;81.90
74329;BME280;62749;51.982;5.916;2023-01-10T02:44:39;101171.66;;;5.99;82.12
74329;BME280;62749;51.982;5.916;2023-01-10T02:47:12;101176.91;;;5.98;82.93
74329;BME280;62749;51.982;5.916;2023-01-10T02:49:46;101178.63;;;6.01;83.12
74329;BME280;62749;51.982;5.916;2023-01-10T02:52:20;101186.53;;;5.96;83.35
74329;BME280;62749;51.982;5.916;2023-01-10T02:54:55;101194.38;;;6.01;83.91
74329;BME280;62749;51.982;5.916;2023-01-10T02:57:42;101186.50;;;5.99;83.97
74329;BME280;62749;51.982;5.916;2023-01-10T03:00:32;101189.97;;;6.03;84.34
74329;BME280;62749;51.982;5.916;2023-01-10T03:03:17;101192.59;;;6.03;84.49
74329;BME280;62749;51.982;5.916;2023-01-10T03:06:14;101175.88;;;6.08;84.17
74329;BME280;62749;51.982;5.916;2023-01-10T03:08:53;101186.47;;;6.04;84.23
74329;BME280;62749;51.982;5.916;2023-01-10T03:11:28;101183.88;;;5.99;84.54
74329;BME280;62749;51.982;5.916;2023-01-10T03:14:17;101185.56;;;6.03;84.11
74329;BME280;62749;51.982;5.916;2023-01-10T03:16:53;101199.66;;;5.96;84.81
74329;BME280;62749;51.982;5.916;2023-01-10T03:19:27;101197.81;;;6.04;84.46
74329;BME280;62749;51.982;5.916;2023-01-10T03:22:02;101212.72;;;6.01;84.03
74329;BME280;62749;51.982;5.916;2023-01-10T03:24:38;101206.59;;;5.98;84.36
74329;BME280;62749;51.982;5.916;2023-01-10T03:27:17;101213.63;;;5.98;84.39
74329;BME280;62749;51.982;5.916;2023-01-10T03:29:55;101220.59;;;5.97;84.45
74329;BME280;62749;51.982;5.916;2023-01-10T03:32:29;101227.66;;;5.94;84.48
74329;BME280;62749;51.982;5.916;2023-01-10T03:35:01;101239.94;;;5.93;84.53
74329;BME280;62749;51.982;5.916;2023-01-10T03:37:43;101241.63;;;5.96;84.58
74329;BME280;62749;51.982;5.916;2023-01-10T03:40:19;101238.28;;;5.86;84.68
74329;BME280;62749;51.982;5.916;2023-01-10T03:42:57;101243.41;;;5.94;84.84
74329;BME280;62749;51.982;5.916;2023-01-10T03:45:48;101249.50;;;5.94;84.69
74329;BME280;62749;51.982;5.916;2023-01-10T03:48:32;101253.03;;;5.92;84.71
74329;BME280;62749;51.982;5.916;2023-01-10T03:51:06;101257.38;;;5.96;84.60
74329;BME280;62749;51.982;5.916;2023-01-10T03:53:39;101253.84;;;5.97;84.19
74329;BME280;62749;51.982;5.916;2023-01-10T03:56:12;101254.84;;;5.88;84.83
74329;BME280;62749;51.982;5.916;2023-01-10T03:58:41;101267.03;;;5.92;84.48
74329;BME280;62749;51.982;5.916;2023-01-10T04:01:11;101266.16;;;5.93;84.71
74329;BME280;62749;51.982;5.916;2023-01-10T04:03:40;101263.44;;;5.98;84.12
74329;BME280;62749;51.982;5.916;2023-01-10T04:06:09;101273.06;;;5.99;84.48
74329;BME280;62749;51.982;5.916;2023-01-10T04:08:41;101265.22;;;5.94;84.40
74329;BME280;62749;51.982;5.916;2023-01-10T04:11:11;101259.09;;;6.00;84.43
74329;BME280;62749;51.982;5.916;2023-01-10T04:13:40;101270.28;;;6.10;84.64
74329;BME280;62749;51.982;5.916;2023-01-10T04:16:09;101265.06;;;6.07;84.38
74329;BME280;62749;51.982;5.916;2023-01-10T04:18:39;101272.97;;;6.05;84.11
74329;BME280;62749;51.982;5.916;2023-01-10T04:21:08;101265.16;;;6.02;84.53
74329;BME280;62749;51.982;5.916;2023-01-10T04:23:37;101272.09;;;6.06;84.53
74329;BME280;62749;51.982;5.916;2023-01-10T04:26:09;101286.84;;;6.13;84.26
74329;BME280;62749;51.982;5.916;2023-01-10T04:28:39;101282.44;;;6.16;84.50
74329;BME280;62749;51.982;5.916;2023-01-10T04:31:08;101283.41;;;6.11;84.78
74329;BME280;62749;51.982;5.916;2023-01-10T04:33:38;101280.03;;;6.02;84.99
74329;BME280;62749;51.982;5.916;2023-01-10T04:36:07;101283.56;;;5.99;85.40
74329;BME280;62749;51.982;5.916;2023-01-10T04:38:37;101293.16;;;6.02;85.37
74329;BME280;62749;51.982;5.916;2023-01-10T04:41:09;101290.53;;;5.98;84.96
74329;BME280;62749;51.982;5.916;2023-01-10T04:43:38;101294.03;;;5.99;85.00
74329;BME280;62749;51.982;5.916;2023-01-10T04:46:07;101294.94;;;5.96;84.98
74329;BME280;62749;51.982;5.916;2023-01-10T04:48:37;101301.94;;;5.94;84.85
74329;BME280;62749;51.982;5.916;2023-01-10T04:51:06;101308.13;;;5.92;84.95
74329;BME280;62749;51.982;5.916;2023-01-10T04:53:36;101309.81;;;5.96;85.28
74329;BME280;62749;51.982;5.916;2023-01-10T04:56:09;101310.66;;;5.96;84.83
74329;BME280;62749;51.982;5.916;2023-01-10T04:58:44;101313.25;;;6.03;84.90
74329;BME280;62749;51.982;5.916;2023-01-10T05:01:16;101317.59;;;6.02;84.67
74329;BME280;62749;51.982;5.916;2023-01-10T05:03:46;101315.91;;;5.96;84.68
74329;BME280;62749;51.982;5.916;2023-01-10T05:06:17;101319.41;;;6.00;84.59
74329;BME280;62749;51.982;5.916;2023-01-10T05:08:47;101328.13;;;5.97;85.00
74329;BME280;62749;51.982;5.916;2023-01-10T05:11:19;101326.38;;;6.03;84.72
74329;BME280;62749;51.982;5.916;2023-01-10T05:13:48;101327.22;;;6.05;84.48
74329;BME280;62749;51.982;5.916;2023-01-10T05:16:17;101334.19;;;6.04;84.36
74329;BME280;62749;51.982;5.916;2023-01-10T05:18:47;101333.28;;;6.07;84.09
74329;BME280;62749;51.982;5.916;2023-01-10T05:21:16;101340.22;;;6.11;83.92
74329;BME280;62749;51.982;5.916;2023-01-10T05:23:46;101328.94;;;6.06;83.99
74329;BME280;62749;51.982;5.916;2023-01-10T05:26:20;101327.16;;;6.08;83.94
74329;BME280;62749;51.982;5.916;2023-01-10T05:28:50;101334.97;;;6.12;83.86
74329;BME280;62749;51.982;5.916;2023-01-10T05:31:19;101334.91;;;6.16;84.06
74329;BME280;62749;51.982;5.916;2023-01-10T05:33:50;101339.22;;;6.20;83.61
74329;BME280;62749;51.982;5.916;2023-01-10T05:36:20;101340.06;;;6.20;83.67
74329;BME280;62749;51.982;5.916;2023-01-10T05:38:49;101341.81;;;6.21;83.74
74329;BME280;62749;51.982;5.916;2023-01-10T05:41:21;101361.00;;;6.26;83.53
74329;BME280;62749;51.982;5.916;2023-01-10T05:43:51;101376.69;;;6.28;83.70
74329;BME280;62749;51.982;5.916;2023-01-10T05:46:20;101380.19;;;6.30;83.51
74329;BME280;62749;51.982;5.916;2023-01-10T05:48:50;101387.19;;;6.29;83.68
74329;BME280;62749;51.982;5.916;2023-01-10T05:51:20;101389.75;;;6.34;83.15
74329;BME280;62749;51.982;5.916;2023-01-10T05:53:49;101397.63;;;6.33;83.27
74329;BME280;62749;51.982;5.916;2023-01-10T05:56:21;101377.50;;;6.33;83.20
74329;BME280;62749;51.982;5.916;2023-01-10T05:58:51;101381.91;;;6.31;83.11
74329;BME280;62749;51.982;5.916;2023-01-10T06:01:20;101391.56;;;6.29;83.09
74329;BME280;62749;51.982;5.916;2023-01-10T06:03:49;101399.53;;;6.23;82.85
74329;BME280;62749;51.982;5.916;2023-01-10T06:06:19;101410.81;;;6.29;82.92
74329;BME280;62749;51.982;5.916;2023-01-10T06:08:48;101414.28;;;6.30;82.92
74329;BME280;62749;51.982;5.916;2023-01-10T06:11:24;101419.56;;;6.28;83.33
74329;BME280;62749;51.982;5.916;2023-01-10T06:13:55;101411.56;;;6.38;82.77
74329;BME280;62749;51.982;5.916;2023-01-10T06:16:25;101408.97;;;6.36;82.48
74329;BME280;62749;51.982;5.916;2023-01-10T06:18:54;101413.34;;;6.36;82.66
74329;BME280;62749;51.982;5.916;2023-01-10T06:21:23;101414.22;;;6.36;82.18
74329;BME280;62749;51.982;5.916;2023-01-10T06:23:53;101422.09;;;6.36;82.38
74329;BME280;62749;51.982;5.916;2023-01-10T06:26:29;101434.44;;;6.28;82.58
74329;BME280;62749;51.982;5.916;2023-01-10T06:28:59;101397.16;;;6.04;82.90
74329;BME280;62749;51.982;5.916;2023-01-10T06:31:28;101435.41;;;6.21;82.70
74329;BME280;62749;51.982;5.916;2023-01-10T06:33:57;101438.09;;;6.14;82.90
74329;BME280;62749;51.982;5.916;2023-01-10T06:36:27;101439.84;;;6.16;82.61
74329;BME280;62749;51.982;5.916;2023-01-10T06:38:56;101443.41;;;6.11;83.12
74329;BME280;62749;51.982;5.916;2023-01-10T06:41:26;101441.59;;;6.18;83.03
74329;BME280;62749;51.982;5.916;2023-01-10T06:43:58;101438.00;;;6.24;82.76
74329;BME280;62749;51.982;5.916;2023-01-10T06:46:27;101445.00;;;6.25;82.37
74329;BME280;62749;51.982;5.916;2023-01-10T06:48:56;101465.13;;;6.21;82.42
74329;BME280;62749;51.982;5.916;2023-01-10T06:51:26;101463.41;;;6.22;82.61
74329;BME280;62749;51.982;5.916;2023-01-10T06:53:55;101461.63;;;6.22;82.67
74329;BME280;62749;51.982;5.916;2023-01-10T06:56:24;101463.38;;;6.25;82.22
74329;BME280;62749;51.982;5.916;2023-01-10T06:58:54;101466.88;;;6.24;82.25
74329;BME280;62749;51.982;5.916;2023-01-10T07:01:26;101479.97;;;6.25;82.14
74329;BME280;62749;51.982;5.916;2023-01-10T07:03:55;101476.47;;;6.25;82.08
74329;BME280;62749;51.982;5.916;2023-01-10T07:06:25;101472.16;;;6.21;82.25
74329;BME280;62749;51.982;5.916;2023-01-10T07:08:54;101463.41;;;6.22;82.16
74329;BME280;62749;51.982;5.916;2023-01-10T07:11:24;101478.16;;;6.29;82.25
74329;BME280;62749;51.982;5.916;2023-01-10T07:13:53;101484.25;;;6.31;81.95
74329;BME280;62749;51.982;5.916;2023-01-10T07:16:23;101486.91;;;6.29;82.36
74329;BME280;62749;51.982;5.916;2023-01-10T07:18:54;101479.91;;;6.32;82.60
74329;BME280;62749;51.982;5.916;2023-01-10T07:21:24;101487.66;;;6.38;82.57
74329;BME280;62749;51.982;5.916;2023-01-10T07:23:53;101495.53;;;6.38;81.99
74329;BME280;62749;51.982;5.916;2023-01-10T07:26:23;101497.31;;;6.36;81.75
74329;BME280;62749;51.982;5.916;2023-01-10T07:29:11;101495.56;;;6.36;81.72
74329;BME280;62749;51.982;5.916;2023-01-10T07:31:40;101505.22;;;6.33;81.52
74329;BME280;62749;51.982;5.916;2023-01-10T07:34:12;101503.44;;;6.36;81.87
74329;BME280;62749;51.982;5.916;2023-01-10T07:36:42;101507.75;;;6.40;81.87
74329;BME280;62749;51.982;5.916;2023-01-10T07:39:11;101508.72;;;6.33;82.16
74329;BME280;62749;51.982;5.916;2023-01-10T07:41:40;101508.66;;;6.38;82.12
74329;BME280;62749;51.982;5.916;2023-01-10T07:44:10;101521.88;;;6.32;82.56
74329;BME280;62749;51.982;5.916;2023-01-10T07:46:39;101540.09;;;6.42;81.88
74329;BME280;62749;51.982;5.916;2023-01-10T07:49:09;101534.91;;;6.38;81.59
74329;BME280;62749;51.982;5.916;2023-01-10T07:51:42;101548.06;;;6.36;81.93
74329;BME280;62749;51.982;5.916;2023-01-10T07:54:11;101564.66;;;6.37;82.04
74329;BME280;62749;51.982;5.916;2023-01-10T07:56:40;101569.88;;;6.40;81.55
74329;BME280;62749;51.982;5.916;2023-01-10T07:59:10;101561.25;;;6.30;81.56
74329;BME280;62749;51.982;5.916;2023-01-10T08:01:39;101566.53;;;6.27;81.49
74329;BME280;62749;51.982;5.916;2023-01-10T08:04:09;101563.97;;;6.22;81.40
74329;BME280;62749;51.982;5.916;2023-01-10T08:06:38;101564.69;;;6.34;81.86
74329;BME280;62749;51.982;5.916;2023-01-10T08:09:10;101577.75;;;6.40;81.80
74329;BME280;62749;51.982;5.916;2023-01-10T08:11:40;101562.06;;;6.35;81.99
74329;BME280;62749;51.982;5.916;2023-01-10T08:14:09;101567.38;;;6.29;81.05
74329;BME280;62749;51.982;5.916;2023-01-10T08:16:39;101569.97;;;6.32;82.12
74329;BME280;62749;51.982;5.916;2023-01-10T08:19:08;101563.81;;;6.36;81.37
74329;BME280;62749;51.982;5.916;2023-01-10T08:21:42;101566.44;;;6.36;80.71
74329;BME280;62749;51.982;5.916;2023-01-10T08:24:14;101563.84;;;6.33;81.35
74329;BME280;62749;51.982;5.916;2023-01-10T08:26:43;101569.16;;;6.28;81.17
74329;BME280;62749;51.982;5.916;2023-01-10T08:29:13;101577.03;;;6.28;80.46
74329;BME280;62749;51.982;5.916;2023-01-10T08:31:42;101564.00;;;6.18;80.83
74329;BME280;62749;51.982;5.916;2023-01-10T08:34:12;101565.72;;;6.20;81.47
74329;BME280;62749;51.982;5.916;2023-01-10T08:36:41;101571.81;;;6.25;81.60
74329;BME280;62749;51.982;5.916;2023-01-10T08:39:14;101570.88;;;6.28;81.11
74329;BME280;62749;51.982;5.916;2023-01-10T08:41:44;101562.09;;;6.32;81.10
74329;BME280;62749;51.982;5.916;2023-01-10T08:44:14;101569.94;;;6.35;80.60
74329;BME280;62749;51.982;5.916;2023-01-10T08:46:44;101565.66;;;6.29;80.53
74329;BME280;62749;51.982;5.916;2023-01-10T08:49:26;101572.56;;;6.34;80.68
74329;BME280;62749;51.982;5.916;2023-01-10T08:51:55;101578.66;;;6.39;80.21
74329;BME280;62749;51.982;5.916;2023-01-10T08:54:32;101564.59;;;6.41;80.41
74329;BME280;62749;51.982;5.916;2023-01-10T08:57:02;101568.09;;;6.43;80.17
74329;BME280;62749;51.982;5.916;2023-01-10T08:59:32;101566.25;;;6.52;80.65
74329;BME280;62749;51.982;5.916;2023-01-10T09:02:01;101567.16;;;6.46;80.58
74329;BME280;62749;51.982;5.916;2023-01-10T09:04:33;101570.63;;;6.51;80.33
74329;BME280;62749;51.982;5.916;2023-01-10T09:07:09;101561.81;;;6.54;80.55
74329;BME280;62749;51.982;5.916;2023-01-10T09:09:47;101568.94;;;6.45;79.70
74329;BME280;62749;51.982;5.916;2023-01-10T09:12:27;101573.47;;;6.33;80.85
74329;BME280;62749;51.982;5.916;2023-01-10T09:15:10;101573.50;;;6.28;80.42
74329;BME280;62749;51.982;5.916;2023-01-10T09:17:39;101571.78;;;6.28;81.39
74329;BME280;62749;51.982;5.916;2023-01-10T09:20:10;101569.00;;;6.39;80.72
74329;BME280;62749;51.982;5.916;2023-01-10T09:22:39;101567.31;;;6.34;80.37
74329;BME280;62749;51.982;5.916;2023-01-10T09:25:11;101563.91;;;6.28;80.60
74329;BME280;62749;51.982;5.916;2023-01-10T09:27:41;101569.84;;;6.41;80.76
74329;BME280;62749;51.982;5.916;2023-01-10T09:30:11;101561.13;;;6.39;80.14
74329;BME280;62749;51.982;5.916;2023-01-10T09:32:41;101566.38;;;6.41;80.10
74329;BME280;62749;51.982;5.916;2023-01-10T09:35:10;101576.03;;;6.39;80.48
74329;BME280;62749;51.982;5.916;2023-01-10T09:37:40;101569.78;;;6.51;79.53
74329;BME280;62749;51.982;5.916;2023-01-10T09:40:16;101575.13;;;6.40;79.85
74329;BME280;62749;51.982;5.916;2023-01-10T09:43:04;101567.38;;;6.29;79.89
74329;BME280;62749;51.982;5.916;2023-01-10T09:45:46;101568.25;;;6.28;80.20
74329;BME280;62749;51.982;5.916;2023-01-10T09:48:29;101569.84;;;6.41;80.03
74329;BME280;62749;51.982;5.916;2023-01-10T09:51:18;101568.94;;;6.45;79.90
74329;BME280;62749;51.982;5.916;2023-01-10T09:53:57;101564.59;;;6.41;79.15
74329;BME280;62749;51.982;5.916;2023-01-10T09:56:32;101568.06;;;6.47;79.65
74329;BME280;62749;51.982;5.916;2023-01-10T09:59:04;101555.75;;;6.50;79.44
74329;BME280;62749;51.982;5.916;2023-01-10T10:01:34;101560.09;;;6.53;79.16
74329;BME280;62749;51.982;5.916;2023-01-10T10:04:15;101561.84;;;6.52;78.19
74329;BME280;62749;51.982;5.916;2023-01-10T10:06:49;101562.78;;;6.50;78.75
74329;BME280;62749;51.982;5.916;2023-01-10T10:09:22;101570.81;;;6.36;79.55
74329;BME280;62749;51.982;5.916;2023-01-10T10:12:08;101572.38;;;6.49;78.31
74329;BME280;62749;51.982;5.916;2023-01-10T10:14:57;101572.41;;;6.48;79.22
74329;BME280;62749;51.982;5.916;2023-01-10T10:17:42;101568.91;;;6.47;78.29
74329;BME280;62749;51.982;5.916;2023-01-10T10:20:24;101560.25;;;6.40;79.21
74329;BME280;62749;51.982;5.916;2023-01-10T10:23:09;101570.66;;;6.50;78.68
74329;BME280;62749;51.982;5.916;2023-01-10T10:25:51;101569.84;;;6.43;78.39
74329;BME280;62749;51.982;5.916;2023-01-10T10:28:55;101554.97;;;6.43;78.11
74329;BME280;62749;51.982;5.916;2023-01-10T10:31:39;101546.28;;;6.38;79.29
74329;BME280;62749;51.982;5.916;2023-01-10T10:34:21;101551.38;;;6.51;78.61
74329;BME280;62749;51.982;5.916;2023-01-10T10:36:56;101541.69;;;6.57;77.85
74329;BME280;62749;51.982;5.916;2023-01-10T10:39:43;101530.38;;;6.51;77.57
74329;BME280;62749;51.982;5.916;2023-01-10T10:42:15;101535.66;;;6.48;78.45
74329;BME280;62749;51.982;5.916;2023-01-10T10:44:53;101523.34;;;6.54;78.55
74329;BME280;62749;51.982;5.916;2023-01-10T10:47:31;101527.56;;;6.65;77.59
74329;BME280;62749;51.982;5.916;2023-01-10T10:50:15;101524.19;;;6.55;78.08
74329;BME280;62749;51.982;5.916;2023-01-10T10:52:47;101517.97;;;6.60;77.39
74329;BME280;62749;51.982;5.916;2023-01-10T10:55:21;101522.41;;;6.57;78.37
74329;BME280;62749;51.982;5.916;2023-01-10T10:57:51;101525.78;;;6.67;77.60
74329;BME280;62749;51.982;5.916;2023-01-10T11:00:25;101517.97;;;6.60;77.93
74329;BME280;62749;51.982;5.916;2023-01-10T11:03:02;101519.59;;;6.72;77.15
74329;BME280;62749;51.982;5.916;2023-01-10T11:05:36;101513.59;;;6.63;77.18
74329;BME280;62749;51.982;5.916;2023-01-10T11:08:09;101517.19;;;6.55;78.47
74329;BME280;62749;51.982;5.916;2023-01-10T11:10:42;101524.09;;;6.64;77.52
74329;BME280;62749;51.982;5.916;2023-01-10T11:13:22;101509.19;;;6.65;76.76
74329;BME280;62749;51.982;5.916;2023-01-10T11:15:59;101512.72;;;6.62;77.03
74329;BME280;62749;51.982;5.916;2023-01-10T11:18:31;101515.25;;;6.68;77.37
74329;BME280;62749;51.982;5.916;2023-01-10T11:21:07;101509.25;;;6.58;77.88
74329;BME280;62749;51.982;5.916;2023-01-10T11:23:51;101500.38;;;6.67;77.00
74329;BME280;62749;51.982;5.916;2023-01-10T11:26:25;101489.81;;;6.72;77.54
74329;BME280;62749;51.982;5.916;2023-01-10T11:29:06;101487.53;;;6.47;77.96
74329;BME280;62749;51.982;5.916;2023-01-10T11:31:38;101474.31;;;6.56;77.92
74329;BME280;62749;51.982;5.916;2023-01-10T11:34:20;101493.34;;;6.69;77.70
74329;BME280;62749;51.982;5.916;2023-01-10T11:36:56;101494.22;;;6.71;77.87
74329;BME280;62749;51.982;5.916;2023-01-10T11:39:27;101496.91;;;6.67;78.31
74329;BME280;62749;51.982;5.916;2023-01-10T11:42:28;101495.13;;;6.69;77.50
74329;BME280;62749;51.982;5.916;2023-01-10T11:45:20;101488.97;;;6.71;77.65
74329;BME280;62749;51.982;5.916;2023-01-10T11:47:53;101490.47;;;6.86;76.13
74329;BME280;62749;51.982;5.916;2023-01-10T11:50:24;101484.34;;;6.87;76.92
74329;BME280;62749;51.982;5.916;2023-01-10T11:52:56;101476.56;;;6.81;77.44
74329;BME280;62749;51.982;5.916;2023-01-10T11:55:28;101481.94;;;6.73;77.54
74329;BME280;62749;51.982;5.916;2023-01-10T11:58:06;101467.78;;;6.81;77.84
74329;BME280;62749;51.982;5.916;2023-01-10T12:00:41;101465.94;;;6.89;76.59
74329;BME280;62749;51.982;5.916;2023-01-10T12:03:23;101472.91;;;6.91;77.12
74329;BME280;62749;51.982;5.916;2023-01-10T12:05:59;101467.72;;;6.85;77.33
74329;BME280;62749;51.982;5.916;2023-01-10T12:08:30;101462.44;;;6.90;76.49
74329;BME280;62749;51.982;5.916;2023-01-10T12:11:02;101459.84;;;6.85;77.59
74329;BME280;62749;51.982;5.916;2023-01-10T12:13:46;101453.81;;;6.80;77.53
74329;BME280;62749;51.982;5.916;2023-01-10T12:16:22;101452.94;;;6.80;77.69
74329;BME280;62749;51.982;5.916;2023-01-10T12:18:54;101455.47;;;6.86;77.62
74329;BME280;62749;51.982;5.916;2023-01-10T12:21:32;101444.00;;;6.91;77.10
74329;BME280;62749;51.982;5.916;2023-01-10T12:24:11;101445.75;;;6.93;76.54
74329;BME280;62749;51.982;5.916;2023-01-10T12:26:43;101437.81;;;6.94;77.27
74329;BME280;62749;51.982;5.916;2023-01-10T12:29:21;101426.47;;;6.94;77.44
74329;BME280;62749;51.982;5.916;2023-01-10T12:31:56;101434.38;;;6.90;76.92
74329;BME280;62749;51.982;5.916;2023-01-10T12:34:38;101428.31;;;6.85;77.59
74329;BME280;62749;51.982;5.916;2023-01-10T12:37:17;101414.16;;;6.96;77.15
74329;BME280;62749;51.982;5.916;2023-01-10T12:39:52;101413.38;;;6.90;77.39
74329;BME280;62749;51.982;5.916;2023-01-10T12:42:33;101409.97;;;6.84;77.69
74329;BME280;62749;51.982;5.916;2023-01-10T12:45:36;101404.59;;;6.91;77.42
74329;BME280;62749;51.982;5.916;2023-01-10T12:48:16;101415.09;;;6.91;77.59
74329;BME280;62749;51.982;5.916;2023-01-10T12:50:55;101390.78;;;6.79;77.28
74329;BME280;62749;51.982;5.916;2023-01-10T12:53:30;101401.88;;;6.96;76.93
74329;BME280;62749;51.982;5.916;2023-01-10T12:56:05;101394.84;;;6.98;76.88
74329;BME280;62749;51.982;5.916;2023-01-10T12:58:41;101393.06;;;7.00;76.10
74329;BME280;62749;51.982;5.916;2023-01-10T13:01:17;101390.31;;;7.06;76.27
74329;BME280;62749;51.982;5.916;2023-01-10T13:03:54;101384.13;;;7.11;76.04
74329;BME280;62749;51.982;5.916;2023-01-10T13:06:30;101388.66;;;7.02;76.93
74329;BME280;62749;51.982;5.916;2023-01-10T13:09:15;101372.81;;;7.07;76.51
74329;BME280;62749;51.982;5.916;2023-01-10T13:11:52;101383.16;;;7.16;76.53
74329;BME280;62749;51.982;5.916;2023-01-10T13:14:30;101377.78;;;7.22;76.29
74329;BME280;62749;51.982;5.916;2023-01-10T13:17:13;101375.13;;;7.24;75.87
74329;BME280;62749;51.982;5.916;2023-01-10T13:22:59;101362.72;;;7.31;75.61
74329;BME280;62749;51.982;5.916;2023-01-10T13:25:33;101363.59;;;7.31;75.31
74329;BME280;62749;51.982;5.916;2023-01-10T13:28:07;101346.16;;;7.27;75.69
74329;BME280;62749;51.982;5.916;2023-01-10T13:30:58;101349.44;;;7.39;74.93
74329;BME280;62749;51.982;5.916;2023-01-10T13:33:31;101327.41;;;7.44;75.17
74329;BME280;62749;51.982;5.916;2023-01-10T13:36:09;101324.00;;;7.41;75.38
74329;BME280;62749;51.982;5.916;2023-01-10T13:38:49;101325.78;;;7.37;75.77
74329;BME280;62749;51.982;5.916;2023-01-10T13:41:19;101315.28;;;7.39;74.86